Forside
METAR-TAF:

METAR-TAF

Lufthavne :

Indianapolis, Indiana, USA

Breddekreds: 40-01-50N, længdekreds: 086-15-05W, højde: 281 m

Aktuelle vejr

Denne rapport blev lavet for 15 minutter siden, kl. 18:15 UTC
Vind 9 kt fra sydvest
Temperatur 9°C
Fugtighed 53%
Tryk 1017 hPa
Sigt: 16.1 km
skyfri

METAR: KTYQ 231815Z AUTO 22009KT 10SM CLR 09/00 A3004 RMK AO2 T00931002

Tid: 11:30 (18:30 UTC)


TAF: fraværende

Vejrobservationer og prognoser fra mere end 4000 lufthavne (METAR og TAF).

De gule og røde prikker repræsenterer de meteorologiske stationer.

Flyt musen over at se navnet på stationen.

Så klik over at se vejr observationer og prognoser.

At skifte det kort: Klik på de grønne knapper med et sort kors for at zoome ind; på den grønne knap med en bindestreg for at zoome ud; eller på de grønne pile for tilstødende kort.


METAR-TAF: